Bluffton, Ohio
Current Conditions -  °F | °C
As of 2:53 AM on Thursday 18 Dec 2014 (Local Time) from KFDY Reporting Station
Overcast Overcast  
Wind Chill: 20°   Ceiling: 2200
Heat Index: 29°   Visibility: 10mi
Dew Point: 21°   Wind: 10mph
Humidity: 72%   Direction: 280°W
Pressure: 30.22"   Gusts: NA
Location:  40.9°N, 83.89°W
Report Text: KFDY 180753Z AUTO 28009KT 10SM OVC022 M02/M06 A3022 RMK AO2 SLP241 T10171061
Loading
Personal Weather Stations






























Interactive Weather Map New forecast layout! Learn more

10-Day Weather Forecast

Advertisements
Track Severe Weather on mobile